Laton, California
Current Conditions -  °F | °C
As of 2:53 PM on Saturday 25 Oct 2014 (Local Time) from KHJO Reporting Station
Clear Clear  
Wind Chill: 81°   Ceiling: Unl
Heat Index: 81°   Visibility: 10mi
Dew Point: 43°   Wind: 6mph
Humidity: 26%   Direction: NA
Pressure: 30.02"   Gusts: NA
Location:  36.43°N, 119.69°W
Report Text: KHJO 252153Z AUTO VRB05KT 10SM CLR 27/06 A3002 RMK AO2 SLP165 T02720061
Loading
Personal Weather Stations






























Interactive Weather Map
Tropical Storm Tracking
New forecast layout! Learn more

10-Day Weather Forecast

Advertisements
Track Severe Weather on mobile